Sunday, April 22, 2018, 5:50 PM EDT
Back to Local

KBOS, Boston Logan International

Location: Boston, MA, United States Lat: 42.367
Local Time: 5:50 PM EDT (21:50 GMT) Lon: -71.017
Time Zone: US/Eastern Elev: 19 ft

Show me the last for .
Show Decoded

2018-04-22 16:54 METAR KBOS 222054Z 12012KT 10SM CLR 12/M03 A3030 RMK AO2 SLP260 T01171028 55005
                 =
2018-04-22 15:54 METAR KBOS 221954Z 11011KT 10SM CLR 12/M02 A3030 RMK AO2 SLP259 T01221017 =
2018-04-22 14:54 METAR KBOS 221854Z 01009G19KT 10SM CLR 16/M10 A3030 RMK AO2 SLP259 T01611100 =
2018-04-22 13:54 METAR KBOS 221754Z 26011G15KT 10SM CLR 15/M09 A3032 RMK AO2 SLP266 T01501089
                 10156 20083 58010 =
2018-04-22 12:54 METAR KBOS 221654Z 32008G17KT 10SM CLR 14/M09 A3033 RMK AO2 SLP270 T01391089 =
2018-04-22 11:54 METAR KBOS 221554Z 28014G20KT 10SM CLR 13/M08 A3034 RMK AO2 SLP273 T01331083 =
2018-04-22 10:54 METAR KBOS 221454Z 30010G16KT 10SM CLR 12/M08 A3035 RMK AO2 SLP276 T01221083
                 58000 =
2018-04-22 09:54 METAR KBOS 221354Z 28011KT 10SM FEW040 12/M07 A3035 RMK AO2 SLP278 T01171067 =
2018-04-22 08:54 METAR KBOS 221254Z 30010KT 10SM CLR 10/M07 A3035 RMK AO2 SLP277 T01001067 =
2018-04-22 07:54 METAR KBOS 221154Z 31008KT 10SM CLR 08/M07 A3035 RMK AO2 SLP276 T00831072 10083
                 20056 51010 =
2018-04-22 06:54 METAR KBOS 221054Z 30009KT 10SM CLR 07/M07 A3034 RMK AO2 SLP275 T00671067 =
2018-04-22 05:54 METAR KBOS 220954Z 29009KT 10SM CLR 06/M06 A3033 RMK AO2 SLP269 T00611061 =
2018-04-22 04:54 METAR KBOS 220854Z 29008KT 10SM CLR 06/M06 A3032 RMK AO2 SLP266 T00611061 50000
                 =
2018-04-22 03:54 METAR KBOS 220754Z 29008KT 10SM CLR 07/M06 A3032 RMK AO2 SLP267 T00671061 =
2018-04-22 02:54 METAR KBOS 220654Z 29005KT 10SM CLR 07/M07 A3032 RMK AO2 SLP266 T00721067 =
2018-04-22 01:54 METAR KBOS 220554Z 31004KT 10SM CLR 08/M07 A3032 RMK AO2 SLP265 T00781067 10133
                 20067 51007 =
2018-04-22 00:54 METAR KBOS 220454Z 34005KT 10SM CLR 08/M07 A3032 RMK AO2 SLP265 T00831072
                 401500039 =
2018-04-21 23:54 METAR KBOS 220354Z 35006KT 10SM CLR 09/M07 A3031 RMK AO2 SLP261 T00891067 =
2018-04-21 22:54 METAR KBOS 220254Z 09003KT 10SM CLR 08/00 A3030 RMK AO2 SLP258 T00780000 51023 =
2018-04-21 21:54 METAR KBOS 220154Z 36005KT 10SM CLR 11/M04 A3028 RMK AO2 SLP253 T01061044 =
2018-04-21 20:54 METAR KBOS 220054Z 36006KT 10SM CLR 11/M05 A3026 RMK AO2 SLP246 T01111050 =
2018-04-21 19:54 METAR KBOS 212354Z 35010KT 10SM FEW085 FEW200 13/M08 A3023 RMK AO2 SLP235
                 T01331078 10150 20133 53013 =
2018-04-21 18:54 METAR KBOS 212254Z 33015G19KT 10SM FEW085 14/M08 A3020 RMK AO2 SLP226 T01391083
                 =
2018-04-21 17:54 METAR KBOS 212154Z 32013G18KT 10SM FEW080 15/M08 A3019 RMK AO2 SLP222 T01501083
                 =

Support USWX by starting your Amazon purchase here.